Search for airport 
image banner adimage banner adimage banner ad
image banner ad

CL85 - Sonoma Pad 1

Located in Sonoma, United States

ICAO - CL85, IATA -

Data provided by Airmate  

General information

Coordinates: N38°9'30" W122°27'23"
Elevation is 115 feet MSL.
 
View others Airports in California

Operational data

Special qualification required
Current time UTC:
Current local time:
Weather at : KDVO - Gnoss Field ( 9 km )
METAR: KDVO 141115Z AUTO 22005KT 10SM BKN013 OVC021 18/16 A2999 RMK AO2
View NOTAMs / SUP AIP / TFR affecting this airport [VIEW]
Communications frequencies: [VIEW]

Runways:

Airport contact information

Address: Sonoma United States

Satellite view of CL85